This is the latest recevied weather packets stored in our database for station/object KD7DVD-1. If no packets are shown the sender has not sent any weather packets the latest 10 day(s).
| Time | Temp. | Humidity | Pressure | Rain* | Wind** | Luminosity | Snow |
|---|---|---|---|---|---|---|---|
| 1787520617 | 22.78° C | 58% | 1020.3 hPa | 0 mm | - | - | - |
| 1787518817 | 22.78° C | 56% | 1020.4 hPa | 0 mm | - | - | - |
| 1787517017 | 22.22° C | 58% | 1020.5 hPa | 0 mm | - | - | - |
| 1787515217 | 22.78° C | 58% | 1020.4 hPa | 0 mm | - | - | - |
| 1787513417 | 22.22° C | 61% | 1020.4 hPa | 0 mm | - | - | - |
| 1787511617 | 21.67° C | 65% | 1020.5 hPa | 0 mm | - | - | - |
| 1787509816 | 21.11° C | 67% | 1020.4 hPa | 0 mm | - | - | - |
| 1787508016 | 21.11° C | 70% | 1020.2 hPa | 0 mm | - | - | - |
| 1787506217 | 19.44° C | 76% | 1020.3 hPa | 0 mm | - | - | - |
| 1787504416 | 18.89° C | 77% | 1020.3 hPa | 0 mm | - | - | - |
| 1787502616 | 18.33° C | 79% | 1020.1 hPa | 0 mm | - | - | - |
| 1787500817 | 18.33° C | 80% | 1019.9 hPa | 0 mm | - | - | - |
| 1787499016 | 17.78° C | 83% | 1019.6 hPa | 0 mm | - | - | - |
| 1787497216 | 16.67° C | 88% | 1019.5 hPa | 0 mm | - | - | - |
| 1787495421 | 16.11° C | 88% | 1019.4 hPa | 0 mm | - | - | - |
| 1787493621 | 15.56° C | 88% | 1019.1 hPa | 0 mm | - | - | - |
| 1787491821 | 15.56° C | 89% | 1019 hPa | 0 mm | - | - | - |
| 1787490016 | 15° C | 90% | 1018.8 hPa | 0 mm | - | - | - |
| 1787488216 | 14.44° C | 90% | 1018.5 hPa | 0 mm | - | - | - |
| 1787486416 | 14.44° C | 89% | 1018.2 hPa | 0 mm | - | - | - |
| 1787484615 | 15° C | 89% | 1017.8 hPa | 0 mm | - | - | - |
| 1787482816 | 15° C | 88% | 1017.5 hPa | 0 mm | - | - | - |
| 1787481018 | 15.56° C | 87% | 1017.3 hPa | 0 mm | - | - | - |
| 1787479218 | 15.56° C | 87% | 1017.3 hPa | 0 mm | - | - | - |
| 1787477417 | 15° C | 86% | 1017.4 hPa | 0 mm | - | - | - |
* Rain latest hour (hover to see other rain measurements)
** Current wind speed in m/s (hover to see current wind gust speed)